sensor_id;sensor_type;location;lat;lon;timestamp;pressure;altitude;pressure_sealevel;temperature;humidity
44457;BME280;30159;49.316;8.558;2024-01-30T00:01:47;101824.09;;;4.01;100.00
44457;BME280;30159;49.316;8.558;2024-01-30T00:04:14;101819.34;;;3.96;100.00
44457;BME280;30159;49.316;8.558;2024-01-30T00:06:42;101818.88;;;3.86;100.00
44457;BME280;30159;49.316;8.558;2024-01-30T00:09:09;101817.47;;;3.90;100.00
44457;BME280;30159;49.316;8.558;2024-01-30T00:11:36;101823.56;;;3.77;100.00
44457;BME280;30159;49.316;8.558;2024-01-30T00:14:03;101807.50;;;3.64;100.00
44457;BME280;30159;49.316;8.558;2024-01-30T00:16:30;101782.22;;;3.53;100.00
44457;BME280;30159;49.316;8.558;2024-01-30T00:18:56;101821.47;;;3.73;100.00
44457;BME280;30159;49.316;8.558;2024-01-30T00:21:23;101817.78;;;3.67;100.00
44457;BME280;30159;49.316;8.558;2024-01-30T00:23:50;101808.25;;;3.51;100.00
44457;BME280;30159;49.316;8.558;2024-01-30T00:26:18;101820.19;;;3.55;100.00
44457;BME280;30159;49.316;8.558;2024-01-30T00:28:46;101791.03;;;3.54;100.00
44457;BME280;30159;49.316;8.558;2024-01-30T00:31:12;101802.53;;;3.54;100.00
44457;BME280;30159;49.316;8.558;2024-01-30T00:33:39;101820.63;;;3.66;100.00
44457;BME280;30159;49.316;8.558;2024-01-30T00:36:07;101815.09;;;3.67;100.00
44457;BME280;30159;49.316;8.558;2024-01-30T00:38:34;101826.81;;;3.66;100.00
44457;BME280;30159;49.316;8.558;2024-01-30T00:41:01;101819.81;;;3.65;100.00
44457;BME280;30159;49.316;8.558;2024-01-30T00:43:29;101826.38;;;3.63;100.00
44457;BME280;30159;49.316;8.558;2024-01-30T00:45:57;101825.97;;;3.59;100.00
44457;BME280;30159;49.316;8.558;2024-01-30T00:48:23;101835.00;;;3.65;100.00
44457;BME280;30159;49.316;8.558;2024-01-30T00:50:50;101808.47;;;3.56;100.00
44457;BME280;30159;49.316;8.558;2024-01-30T00:53:16;101836.66;;;3.72;100.00
44457;BME280;30159;49.316;8.558;2024-01-30T00:55:43;101828.88;;;3.77;100.00
44457;BME280;30159;49.316;8.558;2024-01-30T00:58:10;101830.56;;;3.78;100.00
44457;BME280;30159;49.316;8.558;2024-01-30T01:00:39;101830.56;;;3.78;100.00
44457;BME280;30159;49.316;8.558;2024-01-30T01:03:05;101829.09;;;3.76;100.00
44457;BME280;30159;49.316;8.558;2024-01-30T01:05:32;101834.63;;;3.74;100.00
44457;BME280;30159;49.316;8.558;2024-01-30T01:07:58;101839.56;;;3.71;100.00
44457;BME280;30159;49.316;8.558;2024-01-30T01:10:25;101836.63;;;3.66;100.00
44457;BME280;30159;49.316;8.558;2024-01-30T01:12:52;101846.09;;;3.68;100.00
44457;BME280;30159;49.316;8.558;2024-01-30T01:15:19;101835.78;;;3.58;100.00
44457;BME280;30159;49.316;8.558;2024-01-30T01:17:47;101807.81;;;3.41;100.00
44457;BME280;30159;49.316;8.558;2024-01-30T01:20:14;101836.63;;;3.59;100.00
44457;BME280;30159;49.316;8.558;2024-01-30T01:22:41;101834.34;;;3.56;100.00
44457;BME280;30159;49.316;8.558;2024-01-30T01:25:09;101837.59;;;3.51;100.00
44457;BME280;30159;49.316;8.558;2024-01-30T01:27:36;101840.47;;;3.50;100.00
44457;BME280;30159;49.316;8.558;2024-01-30T01:30:08;101836.16;;;3.49;100.00
44457;BME280;30159;49.316;8.558;2024-01-30T01:32:35;101826.25;;;3.43;100.00
44457;BME280;30159;49.316;8.558;2024-01-30T01:35:04;101833.06;;;3.45;100.00
44457;BME280;30159;49.316;8.558;2024-01-30T01:37:31;101831.41;;;3.44;100.00
44457;BME280;30159;49.316;8.558;2024-01-30T01:39:58;101828.69;;;3.37;100.00
44457;BME280;30159;49.316;8.558;2024-01-30T01:42:24;101820.03;;;3.29;100.00
44457;BME280;30159;49.316;8.558;2024-01-30T01:44:51;101822.06;;;3.27;100.00
44457;BME280;30159;49.316;8.558;2024-01-30T01:47:18;101823.72;;;3.28;100.00
44457;BME280;30159;49.316;8.558;2024-01-30T01:49:45;101820.00;;;3.22;100.00
44457;BME280;30159;49.316;8.558;2024-01-30T01:52:13;101817.13;;;3.24;100.00
44457;BME280;30159;49.316;8.558;2024-01-30T01:54:40;101811.41;;;3.27;100.00
44457;BME280;30159;49.316;8.558;2024-01-30T01:57:07;101812.28;;;3.34;100.00
44457;BME280;30159;49.316;8.558;2024-01-30T01:59:34;101806.91;;;3.27;100.00
44457;BME280;30159;49.316;8.558;2024-01-30T02:02:02;101818.81;;;3.31;100.00
44457;BME280;30159;49.316;8.558;2024-01-30T02:04:29;101805.91;;;3.35;100.00
44457;BME280;30159;49.316;8.558;2024-01-30T02:06:56;101808.75;;;3.27;100.00
44457;BME280;30159;49.316;8.558;2024-01-30T02:09:24;101799.25;;;3.17;100.00
44457;BME280;30159;49.316;8.558;2024-01-30T02:11:51;101806.44;;;3.17;100.00
44457;BME280;30159;49.316;8.558;2024-01-30T02:14:18;101639.88;;;2.08;100.00
44457;BME280;30159;49.316;8.558;2024-01-30T02:16:44;101814.63;;;3.15;100.00
44457;BME280;30159;49.316;8.558;2024-01-30T02:19:11;101803.09;;;3.08;100.00
44457;BME280;30159;49.316;8.558;2024-01-30T02:21:39;101817.91;;;3.17;100.00
44457;BME280;30159;49.316;8.558;2024-01-30T02:24:06;101815.38;;;3.09;100.00
44457;BME280;30159;49.316;8.558;2024-01-30T02:26:32;101816.19;;;3.10;100.00
44457;BME280;30159;49.316;8.558;2024-01-30T02:28:59;101815.84;;;3.13;100.00
44457;BME280;30159;49.316;8.558;2024-01-30T02:31:26;101813.94;;;3.07;100.00
44457;BME280;30159;49.316;8.558;2024-01-30T02:33:52;101819.06;;;3.08;100.00
44457;BME280;30159;49.316;8.558;2024-01-30T02:36:19;101801.59;;;2.99;100.00
44457;BME280;30159;49.316;8.558;2024-01-30T02:38:47;101813.28;;;3.05;100.00
44457;BME280;30159;49.316;8.558;2024-01-30T02:41:14;101812.88;;;3.01;100.00
44457;BME280;30159;49.316;8.558;2024-01-30T02:43:40;101810.84;;;3.03;100.00
44457;BME280;30159;49.316;8.558;2024-01-30T02:46:07;101813.63;;;2.95;100.00
44457;BME280;30159;49.316;8.558;2024-01-30T02:48:34;101817.66;;;2.84;100.00
44457;BME280;30159;49.316;8.558;2024-01-30T02:51:00;101817.91;;;2.89;100.00
44457;BME280;30159;49.316;8.558;2024-01-30T02:53:27;101803.13;;;2.87;100.00
44457;BME280;30159;49.316;8.558;2024-01-30T02:55:55;101821.44;;;2.97;100.00
44457;BME280;30159;49.316;8.558;2024-01-30T02:58:21;101820.25;;;2.99;100.00
44457;BME280;30159;49.316;8.558;2024-01-30T03:00:48;101636.03;;;1.89;100.00
44457;BME280;30159;49.316;8.558;2024-01-30T03:03:15;101808.84;;;2.84;100.00
44457;BME280;30159;49.316;8.558;2024-01-30T03:05:41;101790.97;;;2.78;100.00
44457;BME280;30159;49.316;8.558;2024-01-30T03:08:08;101811.56;;;2.90;100.00
44457;BME280;30159;49.316;8.558;2024-01-30T03:10:34;101806.56;;;2.81;100.00
44457;BME280;30159;49.316;8.558;2024-01-30T03:13:03;101811.66;;;2.76;100.00
44457;BME280;30159;49.316;8.558;2024-01-30T03:15:30;101809.00;;;2.76;100.00
44457;BME280;30159;49.316;8.558;2024-01-30T03:17:56;101791.72;;;2.71;100.00
44457;BME280;30159;49.316;8.558;2024-01-30T03:20:23;101807.53;;;2.73;100.00
44457;BME280;30159;49.316;8.558;2024-01-30T03:22:50;101806.84;;;2.64;100.00
44457;BME280;30159;49.316;8.558;2024-01-30T03:25:16;101808.88;;;2.62;100.00
44457;BME280;30159;49.316;8.558;2024-01-30T03:27:43;101810.56;;;2.70;100.00
44457;BME280;30159;49.316;8.558;2024-01-30T03:30:11;101810.50;;;2.63;100.00
44457;BME280;30159;49.316;8.558;2024-01-30T03:32:38;101807.59;;;2.58;100.00
44457;BME280;30159;49.316;8.558;2024-01-30T03:35:05;101644.19;;;1.45;100.00
44457;BME280;30159;49.316;8.558;2024-01-30T03:37:32;101806.44;;;2.67;100.00
44457;BME280;30159;49.316;8.558;2024-01-30T03:39:58;101770.31;;;2.58;100.00
44457;BME280;30159;49.316;8.558;2024-01-30T03:42:28;101809.81;;;2.76;100.00
44457;BME280;30159;49.316;8.558;2024-01-30T03:44:56;101806.84;;;2.64;100.00
44457;BME280;30159;49.316;8.558;2024-01-30T03:47:24;101795.09;;;2.59;100.00
44457;BME280;30159;49.316;8.558;2024-01-30T03:49:50;101644.88;;;1.54;100.00
44457;BME280;30159;49.316;8.558;2024-01-30T03:52:17;101733.81;;;2.09;100.00
44457;BME280;30159;49.316;8.558;2024-01-30T03:54:44;101782.88;;;2.43;100.00
44457;BME280;30159;49.316;8.558;2024-01-30T03:57:11;101803.53;;;2.62;100.00
44457;BME280;30159;49.316;8.558;2024-01-30T03:59:37;101813.56;;;2.60;100.00
44457;BME280;30159;49.316;8.558;2024-01-30T04:02:04;101799.75;;;2.50;100.00
44457;BME280;30159;49.316;8.558;2024-01-30T04:04:32;101808.41;;;2.59;100.00
44457;BME280;30159;49.316;8.558;2024-01-30T04:06:59;101801.28;;;2.59;100.00
44457;BME280;30159;49.316;8.558;2024-01-30T04:09:25;101818.47;;;2.57;100.00
44457;BME280;30159;49.316;8.558;2024-01-30T04:11:53;101817.38;;;2.51;100.00
44457;BME280;30159;49.316;8.558;2024-01-30T04:14:20;101807.91;;;2.48;100.00
44457;BME280;30159;49.316;8.558;2024-01-30T04:16:47;101806.22;;;2.41;100.00
44457;BME280;30159;49.316;8.558;2024-01-30T04:19:13;101628.06;;;1.32;100.00
44457;BME280;30159;49.316;8.558;2024-01-30T04:21:41;101804.94;;;2.37;100.00
44457;BME280;30159;49.316;8.558;2024-01-30T04:24:08;101790.09;;;2.27;100.00
44457;BME280;30159;49.316;8.558;2024-01-30T04:26:35;101812.69;;;2.31;100.00
44457;BME280;30159;49.316;8.558;2024-01-30T04:29:02;101789.31;;;2.12;100.00
44457;BME280;30159;49.316;8.558;2024-01-30T04:31:28;101806.38;;;2.18;100.00
44457;BME280;30159;49.316;8.558;2024-01-30T04:33:55;101677.75;;;1.31;100.00
44457;BME280;30159;49.316;8.558;2024-01-30T04:36:21;101811.41;;;2.27;100.00
44457;BME280;30159;49.316;8.558;2024-01-30T04:38:49;101803.56;;;2.19;100.00
44457;BME280;30159;49.316;8.558;2024-01-30T04:41:16;101802.53;;;2.20;100.00
44457;BME280;30159;49.316;8.558;2024-01-30T04:43:43;101808.47;;;2.22;100.00
44457;BME280;30159;49.316;8.558;2024-01-30T04:46:09;101810.84;;;2.32;100.00
44457;BME280;30159;49.316;8.558;2024-01-30T04:48:36;101817.22;;;2.38;100.00
44457;BME280;30159;49.316;8.558;2024-01-30T04:51:03;101809.88;;;2.40;100.00
44457;BME280;30159;49.316;8.558;2024-01-30T04:53:30;101811.91;;;2.38;100.00
44457;BME280;30159;49.316;8.558;2024-01-30T04:55:57;101813.31;;;2.34;100.00
44457;BME280;30159;49.316;8.558;2024-01-30T04:58:24;101801.50;;;2.21;100.00
44457;BME280;30159;49.316;8.558;2024-01-30T05:00:51;101811.00;;;2.30;100.00
44457;BME280;30159;49.316;8.558;2024-01-30T05:03:17;101814.78;;;2.36;100.00
44457;BME280;30159;49.316;8.558;2024-01-30T05:05:44;101820.81;;;2.45;100.00
44457;BME280;30159;49.316;8.558;2024-01-30T05:08:11;101828.41;;;2.48;100.00
44457;BME280;30159;49.316;8.558;2024-01-30T05:10:37;101820.53;;;2.40;100.00
44457;BME280;30159;49.316;8.558;2024-01-30T05:13:05;101823.19;;;2.40;100.00
44457;BME280;30159;49.316;8.558;2024-01-30T05:15:32;101825.41;;;2.36;100.00
44457;BME280;30159;49.316;8.558;2024-01-30T05:17:58;101823.00;;;2.41;100.00
44457;BME280;30159;49.316;8.558;2024-01-30T05:20:25;101824.22;;;2.39;100.00
44457;BME280;30159;49.316;8.558;2024-01-30T05:22:55;101828.34;;;2.41;100.00
44457;BME280;30159;49.316;8.558;2024-01-30T05:25:21;101823.56;;;2.37;100.00
44457;BME280;30159;49.316;8.558;2024-01-30T05:27:48;101836.50;;;2.40;100.00
44457;BME280;30159;49.316;8.558;2024-01-30T05:30:17;101824.59;;;2.36;100.00
44457;BME280;30159;49.316;8.558;2024-01-30T05:32:44;101824.59;;;2.36;100.00
44457;BME280;30159;49.316;8.558;2024-01-30T05:35:11;101831.56;;;2.37;100.00
44457;BME280;30159;49.316;8.558;2024-01-30T05:37:37;101841.31;;;2.29;100.00
44457;BME280;30159;49.316;8.558;2024-01-30T05:40:05;101824.97;;;2.32;100.00
44457;BME280;30159;49.316;8.558;2024-01-30T05:42:32;101828.25;;;2.35;100.00
44457;BME280;30159;49.316;8.558;2024-01-30T05:44:58;101833.59;;;2.35;100.00
44457;BME280;30159;49.316;8.558;2024-01-30T05:47:26;101836.25;;;2.35;100.00
44457;BME280;30159;49.316;8.558;2024-01-30T05:49:53;101839.28;;;2.31;100.00
44457;BME280;30159;49.316;8.558;2024-01-30T05:52:20;101836.47;;;2.18;100.00
44457;BME280;30159;49.316;8.558;2024-01-30T05:54:46;101836.38;;;2.26;100.00
44457;BME280;30159;49.316;8.558;2024-01-30T05:57:13;101835.25;;;2.36;100.00
44457;BME280;30159;49.316;8.558;2024-01-30T05:59:40;101830.88;;;2.49;100.00
44457;BME280;30159;49.316;8.558;2024-01-30T06:02:06;101839.16;;;2.40;100.00
44457;BME280;30159;49.316;8.558;2024-01-30T06:04:34;101846.50;;;2.38;100.00
44457;BME280;30159;49.316;8.558;2024-01-30T06:07:01;101843.84;;;2.38;100.00
44457;BME280;30159;49.316;8.558;2024-01-30T06:09:28;101840.13;;;2.32;100.00
44457;BME280;30159;49.316;8.558;2024-01-30T06:11:55;101817.47;;;2.21;100.00
44457;BME280;30159;49.316;8.558;2024-01-30T06:14:21;101840.63;;;2.42;100.00
44457;BME280;30159;49.316;8.558;2024-01-30T06:16:48;101836.38;;;2.48;100.00
44457;BME280;30159;49.316;8.558;2024-01-30T06:19:15;101840.56;;;2.36;100.00
44457;BME280;30159;49.316;8.558;2024-01-30T06:21:44;101838.66;;;2.29;100.00
44457;BME280;30159;49.316;8.558;2024-01-30T06:24:11;101832.06;;;2.25;100.00
44457;BME280;30159;49.316;8.558;2024-01-30T06:26:37;101837.59;;;2.24;100.00
44457;BME280;30159;49.316;8.558;2024-01-30T06:29:04;101823.31;;;2.10;100.00
44457;BME280;30159;49.316;8.558;2024-01-30T06:31:31;101840.66;;;2.06;100.00
44457;BME280;30159;49.316;8.558;2024-01-30T06:33:57;101837.88;;;2.14;100.00
44457;BME280;30159;49.316;8.558;2024-01-30T06:36:24;101831.50;;;1.94;100.00
44457;BME280;30159;49.316;8.558;2024-01-30T06:38:52;101828.00;;;1.93;100.00
44457;BME280;30159;49.316;8.558;2024-01-30T06:41:19;101842.28;;;2.07;100.00
44457;BME280;30159;49.316;8.558;2024-01-30T06:43:46;101830.66;;;1.93;100.00
44457;BME280;30159;49.316;8.558;2024-01-30T06:46:12;101838.72;;;2.00;100.00
44457;BME280;30159;49.316;8.558;2024-01-30T06:48:39;101841.09;;;2.09;100.00
44457;BME280;30159;49.316;8.558;2024-01-30T06:51:06;101839.88;;;2.12;100.00
44457;BME280;30159;49.316;8.558;2024-01-30T06:53:33;101837.69;;;2.16;100.00
44457;BME280;30159;49.316;8.558;2024-01-30T06:56:02;101843.19;;;2.14;100.00
44457;BME280;30159;49.316;8.558;2024-01-30T06:58:29;101846.34;;;2.03;100.00
44457;BME280;30159;49.316;8.558;2024-01-30T07:00:56;101843.56;;;2.11;100.00
44457;BME280;30159;49.316;8.558;2024-01-30T07:03:22;101844.78;;;2.08;100.00
44457;BME280;30159;49.316;8.558;2024-01-30T07:05:49;101848.72;;;1.98;100.00
44457;BME280;30159;49.316;8.558;2024-01-30T07:08:17;101853.72;;;2.22;100.00
44457;BME280;30159;49.316;8.558;2024-01-30T07:10:43;101855.81;;;2.05;100.00
44457;BME280;30159;49.316;8.558;2024-01-30T07:13:12;101848.16;;;2.02;100.00
44457;BME280;30159;49.316;8.558;2024-01-30T07:15:38;101850.09;;;2.08;100.00
44457;BME280;30159;49.316;8.558;2024-01-30T07:18:05;101850.44;;;2.20;100.00
44457;BME280;30159;49.316;8.558;2024-01-30T07:20:33;101817.84;;;2.18;100.00
44457;BME280;30159;49.316;8.558;2024-01-30T07:23:00;101839.16;;;2.40;100.00
44457;BME280;30159;49.316;8.558;2024-01-30T07:25:27;101853.00;;;2.50;100.00
44457;BME280;30159;49.316;8.558;2024-01-30T07:27:55;101849.22;;;2.59;100.00
44457;BME280;30159;49.316;8.558;2024-01-30T07:30:23;101853.13;;;2.63;100.00
44457;BME280;30159;49.316;8.558;2024-01-30T07:32:49;101833.91;;;2.46;100.00
44457;BME280;30159;49.316;8.558;2024-01-30T07:35:16;101856.75;;;2.56;100.00
44457;BME280;30159;49.316;8.558;2024-01-30T07:37:43;101856.34;;;2.59;100.00
44457;BME280;30159;49.316;8.558;2024-01-30T07:40:10;101855.53;;;2.58;100.00
44457;BME280;30159;49.316;8.558;2024-01-30T07:42:36;101847.28;;;2.53;100.00
44457;BME280;30159;49.316;8.558;2024-01-30T07:45:04;101854.16;;;2.62;100.00
44457;BME280;30159;49.316;8.558;2024-01-30T07:47:32;101850.75;;;2.75;100.00
44457;BME280;30159;49.316;8.558;2024-01-30T07:49:59;101850.97;;;2.73;100.00
44457;BME280;30159;49.316;8.558;2024-01-30T07:52:25;101753.28;;;2.31;100.00
44457;BME280;30159;49.316;8.558;2024-01-30T07:54:52;101852.47;;;3.04;100.00
44457;BME280;30159;49.316;8.558;2024-01-30T07:57:19;101859.13;;;3.22;100.00
44457;BME280;30159;49.316;8.558;2024-01-30T07:59:45;101860.16;;;3.21;100.00
44457;BME280;30159;49.316;8.558;2024-01-30T08:02:12;101863.13;;;3.32;100.00
44457;BME280;30159;49.316;8.558;2024-01-30T08:04:40;101867.28;;;3.42;100.00
44457;BME280;30159;49.316;8.558;2024-01-30T08:07:07;101872.25;;;3.51;100.00
44457;BME280;30159;49.316;8.558;2024-01-30T08:09:37;101871.81;;;3.41;100.00
44457;BME280;30159;49.316;8.558;2024-01-30T08:12:04;101872.41;;;3.71;100.00
44457;BME280;30159;49.316;8.558;2024-01-30T08:14:31;101883.53;;;3.82;100.00
44457;BME280;30159;49.316;8.558;2024-01-30T08:16:58;101881.75;;;3.95;100.00
44457;BME280;30159;49.316;8.558;2024-01-30T08:19:24;101868.81;;;3.92;100.00
44457;BME280;30159;49.316;8.558;2024-01-30T08:21:52;101885.63;;;3.93;100.00
44457;BME280;30159;49.316;8.558;2024-01-30T08:24:19;101891.56;;;3.88;100.00
44457;BME280;30159;49.316;8.558;2024-01-30T08:26:46;101888.53;;;3.98;100.00
44457;BME280;30159;49.316;8.558;2024-01-30T08:29:12;101894.38;;;4.21;100.00
44457;BME280;30159;49.316;8.558;2024-01-30T08:31:39;101890.16;;;4.54;100.00
44457;BME280;30159;49.316;8.558;2024-01-30T08:34:06;101894.06;;;4.51;100.00
44457;BME280;30159;49.316;8.558;2024-01-30T08:36:32;101889.81;;;4.83;100.00
44457;BME280;30159;49.316;8.558;2024-01-30T08:39:00;101893.72;;;5.01;100.00
44457;BME280;30159;49.316;8.558;2024-01-30T08:41:27;101891.47;;;5.11;100.00
44457;BME280;30159;49.316;8.558;2024-01-30T08:43:54;101779.78;;;4.33;100.00
44457;BME280;30159;49.316;8.558;2024-01-30T08:46:20;101891.88;;;4.95;100.00
44457;BME280;30159;49.316;8.558;2024-01-30T08:48:47;101892.91;;;5.20;100.00
44457;BME280;30159;49.316;8.558;2024-01-30T08:51:14;101898.44;;;5.05;100.00
44457;BME280;30159;49.316;8.558;2024-01-30T08:53:41;101893.50;;;5.36;100.00
44457;BME280;30159;49.316;8.558;2024-01-30T08:56:09;101893.31;;;5.37;100.00
44457;BME280;30159;49.316;8.558;2024-01-30T08:58:36;101894.75;;;5.46;100.00
44457;BME280;30159;49.316;8.558;2024-01-30T09:01:03;101893.88;;;5.59;100.00
44457;BME280;30159;49.316;8.558;2024-01-30T09:03:31;101894.91;;;5.72;100.00
44457;BME280;30159;49.316;8.558;2024-01-30T09:05:57;101887.88;;;5.70;100.00
44457;BME280;30159;49.316;8.558;2024-01-30T09:08:23;101889.72;;;5.77;100.00
44457;BME280;30159;49.316;8.558;2024-01-30T09:10:50;101883.75;;;5.75;100.00
44457;BME280;30159;49.316;8.558;2024-01-30T09:13:18;101752.22;;;5.06;100.00
44457;BME280;30159;49.316;8.558;2024-01-30T09:15:44;101882.31;;;5.79;100.00
44457;BME280;30159;49.316;8.558;2024-01-30T09:18:11;101890.38;;;5.65;100.00
44457;BME280;30159;49.316;8.558;2024-01-30T09:20:38;101879.94;;;5.44;100.00
44457;BME280;30159;49.316;8.558;2024-01-30T09:23:04;101898.22;;;5.54;100.00
44457;BME280;30159;49.316;8.558;2024-01-30T09:25:31;101906.81;;;5.82;100.00
44457;BME280;30159;49.316;8.558;2024-01-30T09:27:59;101902.59;;;6.20;100.00
44457;BME280;30159;49.316;8.558;2024-01-30T09:30:27;101903.31;;;6.40;100.00
44457;BME280;30159;49.316;8.558;2024-01-30T09:32:54;101899.34;;;6.49;100.00
44457;BME280;30159;49.316;8.558;2024-01-30T09:35:20;101906.91;;;6.59;100.00
44457;BME280;30159;49.316;8.558;2024-01-30T09:37:47;101913.59;;;6.43;100.00
44457;BME280;30159;49.316;8.558;2024-01-30T09:40:14;101902.66;;;6.51;100.00
44457;BME280;30159;49.316;8.558;2024-01-30T09:42:46;101909.72;;;6.39;100.00
44457;BME280;30159;49.316;8.558;2024-01-30T09:45:14;101754.94;;;5.58;100.00
44457;BME280;30159;49.316;8.558;2024-01-30T09:47:43;101909.38;;;6.67;100.00
44457;BME280;30159;49.316;8.558;2024-01-30T09:50:11;101898.84;;;6.97;100.00
44457;BME280;30159;49.316;8.558;2024-01-30T09:52:39;101908.53;;;6.99;100.00
44457;BME280;30159;49.316;8.558;2024-01-30T09:55:06;101909.69;;;7.09;100.00
44457;BME280;30159;49.316;8.558;2024-01-30T09:57:34;101922.94;;;7.29;100.00
44457;BME280;30159;49.316;8.558;2024-01-30T10:00:01;101918.44;;;7.48;100.00
44457;BME280;30159;49.316;8.558;2024-01-30T10:02:28;101801.56;;;6.59;100.00
44457;BME280;30159;49.316;8.558;2024-01-30T10:04:56;101918.22;;;7.50;100.00
44457;BME280;30159;49.316;8.558;2024-01-30T10:07:22;101913.16;;;7.78;100.00
44457;BME280;30159;49.316;8.558;2024-01-30T10:09:49;101915.19;;;8.01;100.00
44457;BME280;30159;49.316;8.558;2024-01-30T10:12:16;101914.50;;;8.24;97.79
44457;BME280;30159;49.316;8.558;2024-01-30T10:14:43;101920.59;;;8.32;95.91
44457;BME280;30159;49.316;8.558;2024-01-30T10:17:10;101906.28;;;8.19;96.10
44457;BME280;30159;49.316;8.558;2024-01-30T10:19:38;101910.78;;;8.44;95.76
44457;BME280;30159;49.316;8.558;2024-01-30T10:22:06;101918.16;;;8.49;94.15
44457;BME280;30159;49.316;8.558;2024-01-30T10:24:33;101917.50;;;8.35;94.35
44457;BME280;30159;49.316;8.558;2024-01-30T10:27:00;101906.06;;;8.39;95.82
44457;BME280;30159;49.316;8.558;2024-01-30T10:29:27;101913.47;;;8.07;97.26
44457;BME280;30159;49.316;8.558;2024-01-30T10:31:58;101913.53;;;8.37;98.48
44457;BME280;30159;49.316;8.558;2024-01-30T10:34:25;101723.59;;;7.41;94.97
44457;BME280;30159;49.316;8.558;2024-01-30T10:36:59;101917.06;;;8.68;94.09
44457;BME280;30159;49.316;8.558;2024-01-30T10:39:38;101911.13;;;8.78;93.81
44457;BME280;30159;49.316;8.558;2024-01-30T10:42:05;101911.97;;;8.90;93.40
44457;BME280;30159;49.316;8.558;2024-01-30T10:44:37;101905.81;;;9.13;93.36
44457;BME280;30159;49.316;8.558;2024-01-30T10:47:06;101907.47;;;9.26;92.47
44457;BME280;30159;49.316;8.558;2024-01-30T10:49:38;101907.59;;;9.31;92.37
44457;BME280;30159;49.316;8.558;2024-01-30T10:52:05;101874.47;;;9.19;92.40
44457;BME280;30159;49.316;8.558;2024-01-30T10:54:36;101746.47;;;8.34;91.02
44457;BME280;30159;49.316;8.558;2024-01-30T10:57:04;101889.09;;;9.58;90.69
44457;BME280;30159;49.316;8.558;2024-01-30T10:59:32;101889.50;;;9.79;89.38
44457;BME280;30159;49.316;8.558;2024-01-30T11:01:59;101891.50;;;9.83;90.28
44457;BME280;30159;49.316;8.558;2024-01-30T11:04:27;101895.28;;;9.59;90.76
44457;BME280;30159;49.316;8.558;2024-01-30T11:06:54;101888.63;;;9.61;90.25
44457;BME280;30159;49.316;8.558;2024-01-30T11:09:20;101889.03;;;9.94;89.48
44457;BME280;30159;49.316;8.558;2024-01-30T11:11:56;101894.19;;;9.83;88.39
44457;BME280;30159;49.316;8.558;2024-01-30T11:14:25;101897.34;;;9.92;89.76
44457;BME280;30159;49.316;8.558;2024-01-30T11:16:51;101885.41;;;9.88;87.61
44457;BME280;30159;49.316;8.558;2024-01-30T11:19:22;101887.97;;;9.95;87.85
44457;BME280;30159;49.316;8.558;2024-01-30T11:21:50;101893.59;;;10.05;86.87
44457;BME280;30159;49.316;8.558;2024-01-30T11:24:19;101891.25;;;9.97;87.33
44457;BME280;30159;49.316;8.558;2024-01-30T11:26:48;101759.59;;;9.36;87.85
44457;BME280;30159;49.316;8.558;2024-01-30T11:29:16;101894.31;;;10.41;85.21
44457;BME280;30159;49.316;8.558;2024-01-30T11:31:51;101886.66;;;10.66;84.71
44457;BME280;30159;49.316;8.558;2024-01-30T11:34:18;101874.25;;;10.65;85.37
44457;BME280;30159;49.316;8.558;2024-01-30T11:36:51;101875.72;;;10.90;84.34
44457;BME280;30159;49.316;8.558;2024-01-30T11:39:20;101869.44;;;11.01;82.87
44457;BME280;30159;49.316;8.558;2024-01-30T11:41:50;101862.31;;;10.95;82.30
44457;BME280;30159;49.316;8.558;2024-01-30T11:44:20;101866.25;;;11.04;82.47
44457;BME280;30159;49.316;8.558;2024-01-30T11:46:47;101866.97;;;11.00;84.09
44457;BME280;30159;49.316;8.558;2024-01-30T11:49:14;101865.75;;;11.24;82.08
44457;BME280;30159;49.316;8.558;2024-01-30T11:51:41;101865.00;;;11.29;82.34
44457;BME280;30159;49.316;8.558;2024-01-30T11:54:08;101864.09;;;11.23;82.16
44457;BME280;30159;49.316;8.558;2024-01-30T11:56:34;101862.53;;;11.27;81.66
44457;BME280;30159;49.316;8.558;2024-01-30T11:59:02;101849.13;;;11.15;81.99
44457;BME280;30159;49.316;8.558;2024-01-30T12:01:31;101853.19;;;11.35;82.66
44457;BME280;30159;49.316;8.558;2024-01-30T12:03:58;101845.25;;;11.45;81.92
44457;BME280;30159;49.316;8.558;2024-01-30T12:06:25;101841.28;;;11.53;80.85
44457;BME280;30159;49.316;8.558;2024-01-30T12:08:59;101835.72;;;11.59;80.79
44457;BME280;30159;49.316;8.558;2024-01-30T12:11:25;101831.69;;;11.84;80.13
44457;BME280;30159;49.316;8.558;2024-01-30T12:13:53;101834.50;;;11.89;79.86
44457;BME280;30159;49.316;8.558;2024-01-30T12:16:20;101835.16;;;12.01;80.52
44457;BME280;30159;49.316;8.558;2024-01-30T12:18:48;101831.66;;;12.01;79.03
44457;BME280;30159;49.316;8.558;2024-01-30T12:21:16;101793.66;;;11.91;79.05
44457;BME280;30159;49.316;8.558;2024-01-30T12:23:44;101811.03;;;12.22;78.57
44457;BME280;30159;49.316;8.558;2024-01-30T12:26:11;101796.16;;;12.19;78.06
44457;BME280;30159;49.316;8.558;2024-01-30T12:28:47;101811.13;;;12.59;77.86
44457;BME280;30159;49.316;8.558;2024-01-30T12:31:15;101801.16;;;12.70;77.60
44457;BME280;30159;49.316;8.558;2024-01-30T12:33:42;101807.34;;;12.98;78.08
44457;BME280;30159;49.316;8.558;2024-01-30T12:36:11;101815.56;;;13.13;75.25
44457;BME280;30159;49.316;8.558;2024-01-30T12:38:38;101810.56;;;12.95;75.21
44457;BME280;30159;49.316;8.558;2024-01-30T12:41:07;101807.16;;;12.72;76.30
44457;BME280;30159;49.316;8.558;2024-01-30T12:43:33;101804.56;;;12.88;75.82
44457;BME280;30159;49.316;8.558;2024-01-30T12:46:00;101807.88;;;12.95;75.76
44457;BME280;30159;49.316;8.558;2024-01-30T12:48:28;101801.91;;;12.98;76.25
44457;BME280;30159;49.316;8.558;2024-01-30T12:50:55;101805.88;;;12.80;76.10